sensor_id;sensor_type;location;lat;lon;timestamp;pressure;altitude;pressure_sealevel;temperature;humidity
84890;BME280;75153;52.222;5.160;2024-01-11T00:02:13;103321.19;;;-3.17;65.82
84890;BME280;75153;52.222;5.160;2024-01-11T00:04:39;103322.72;;;-3.14;66.05
84890;BME280;75153;52.222;5.160;2024-01-11T00:07:05;103321.75;;;-3.25;65.96
84890;BME280;75153;52.222;5.160;2024-01-11T00:09:31;103325.88;;;-3.22;66.20
84890;BME280;75153;52.222;5.160;2024-01-11T00:11:56;103333.72;;;-3.24;66.00
84890;BME280;75153;52.222;5.160;2024-01-11T00:14:21;103323.84;;;-3.30;66.43
84890;BME280;75153;52.222;5.160;2024-01-11T00:16:47;103331.50;;;-3.28;66.21
84890;BME280;75153;52.222;5.160;2024-01-11T00:19:12;103327.16;;;-3.28;66.39
84890;BME280;75153;52.222;5.160;2024-01-11T00:21:37;103323.84;;;-3.30;66.46
84890;BME280;75153;52.222;5.160;2024-01-11T00:24:03;103327.59;;;-3.34;66.59
84890;BME280;75153;52.222;5.160;2024-01-11T00:26:28;103321.59;;;-3.34;66.58
84890;BME280;75153;52.222;5.160;2024-01-11T00:28:54;103321.59;;;-3.34;66.38
84890;BME280;75153;52.222;5.160;2024-01-11T00:31:19;103327.34;;;-3.42;66.51
84890;BME280;75153;52.222;5.160;2024-01-11T00:33:44;103329.47;;;-3.36;66.93
84890;BME280;75153;52.222;5.160;2024-01-11T00:36:10;103321.81;;;-3.38;66.84
84890;BME280;75153;52.222;5.160;2024-01-11T00:38:35;103317.72;;;-3.40;66.92
84890;BME280;75153;52.222;5.160;2024-01-11T00:41:00;103314.53;;;-3.44;66.92
84890;BME280;75153;52.222;5.160;2024-01-11T00:43:26;103313.00;;;-3.46;66.98
84890;BME280;75153;52.222;5.160;2024-01-11T00:45:51;103315.50;;;-3.45;66.86
84890;BME280;75153;52.222;5.160;2024-01-11T00:48:17;103316.53;;;-3.47;66.92
84890;BME280;75153;52.222;5.160;2024-01-11T00:50:42;103323.00;;;-3.42;66.82
84890;BME280;75153;52.222;5.160;2024-01-11T00:53:07;103326.13;;;-3.49;67.44
84890;BME280;75153;52.222;5.160;2024-01-11T00:55:33;103326.13;;;-3.49;67.39
84890;BME280;75153;52.222;5.160;2024-01-11T00:57:59;103322.72;;;-3.50;67.31
84890;BME280;75153;52.222;5.160;2024-01-11T01:00:24;103326.25;;;-3.51;67.34
84890;BME280;75153;52.222;5.160;2024-01-11T01:02:50;103329.66;;;-3.50;67.49
84890;BME280;75153;52.222;5.160;2024-01-11T01:05:15;103330.34;;;-3.48;67.48
84890;BME280;75153;52.222;5.160;2024-01-11T01:07:40;103327.06;;;-3.50;67.50
84890;BME280;75153;52.222;5.160;2024-01-11T01:10:06;103332.47;;;-3.53;67.76
84890;BME280;75153;52.222;5.160;2024-01-11T01:12:33;103337.84;;;-3.56;67.45
84890;BME280;75153;52.222;5.160;2024-01-11T01:14:58;103331.97;;;-3.58;67.95
84890;BME280;75153;52.222;5.160;2024-01-11T01:17:23;103337.22;;;-3.60;68.07
84890;BME280;75153;52.222;5.160;2024-01-11T01:19:49;103334.03;;;-3.64;67.99
84890;BME280;75153;52.222;5.160;2024-01-11T01:22:14;103341.06;;;-3.66;67.75
84890;BME280;75153;52.222;5.160;2024-01-11T01:24:39;103338.69;;;-3.69;68.25
84890;BME280;75153;52.222;5.160;2024-01-11T01:27:05;103339.50;;;-3.68;68.04
84890;BME280;75153;52.222;5.160;2024-01-11T01:29:30;103345.75;;;-3.71;68.18
84890;BME280;75153;52.222;5.160;2024-01-11T01:31:55;103337.50;;;-3.76;68.74
84890;BME280;75153;52.222;5.160;2024-01-11T01:34:21;103346.16;;;-3.77;68.76
84890;BME280;75153;52.222;5.160;2024-01-11T01:36:46;103347.19;;;-3.79;68.76
84890;BME280;75153;52.222;5.160;2024-01-11T01:39:12;103344.75;;;-3.81;69.03
84890;BME280;75153;52.222;5.160;2024-01-11T01:41:37;103348.94;;;-3.80;69.07
84890;BME280;75153;52.222;5.160;2024-01-11T01:44:03;103346.72;;;-3.85;69.05
84890;BME280;75153;52.222;5.160;2024-01-11T01:46:28;103349.50;;;-3.88;69.25
84890;BME280;75153;52.222;5.160;2024-01-11T01:48:56;103348.88;;;-3.91;69.58
84890;BME280;75153;52.222;5.160;2024-01-11T01:51:22;103351.59;;;-3.93;69.68
84890;BME280;75153;52.222;5.160;2024-01-11T01:53:50;103346.53;;;-3.94;69.77
84890;BME280;75153;52.222;5.160;2024-01-11T01:56:18;103350.25;;;-3.98;70.00
84890;BME280;75153;52.222;5.160;2024-01-11T01:58:44;103353.53;;;-3.96;69.85
84890;BME280;75153;52.222;5.160;2024-01-11T02:01:11;103352.84;;;-3.98;70.02
84890;BME280;75153;52.222;5.160;2024-01-11T02:03:38;103366.41;;;-3.96;69.76
84890;BME280;75153;52.222;5.160;2024-01-11T02:06:04;103369.84;;;-3.96;70.53
84890;BME280;75153;52.222;5.160;2024-01-11T02:08:31;103364.78;;;-3.97;69.88
84890;BME280;75153;52.222;5.160;2024-01-11T02:10:59;103368.91;;;-3.95;70.18
84890;BME280;75153;52.222;5.160;2024-01-11T02:13:24;103371.78;;;-3.99;70.15
84890;BME280;75153;52.222;5.160;2024-01-11T02:15:50;103363.38;;;-4.01;70.28
84890;BME280;75153;52.222;5.160;2024-01-11T02:18:16;103359.03;;;-4.01;70.28
84890;BME280;75153;52.222;5.160;2024-01-11T02:20:41;103358.44;;;-4.04;70.57
84890;BME280;75153;52.222;5.160;2024-01-11T02:23:09;103357.69;;;-4.07;70.37
84890;BME280;75153;52.222;5.160;2024-01-11T02:25:36;103347.28;;;-4.05;70.62
84890;BME280;75153;52.222;5.160;2024-01-11T02:28:02;103344.81;;;-4.07;70.79
84890;BME280;75153;52.222;5.160;2024-01-11T02:30:27;103345.53;;;-4.04;70.51
84890;BME280;75153;52.222;5.160;2024-01-11T02:32:53;103347.59;;;-4.10;70.93
84890;BME280;75153;52.222;5.160;2024-01-11T02:35:19;103344.00;;;-4.07;71.08
84890;BME280;75153;52.222;5.160;2024-01-11T02:37:45;103341.72;;;-4.12;71.08
84890;BME280;75153;52.222;5.160;2024-01-11T02:40:12;103341.50;;;-4.09;70.90
84890;BME280;75153;52.222;5.160;2024-01-11T02:42:38;103334.94;;;-4.13;71.08
84890;BME280;75153;52.222;5.160;2024-01-11T02:45:03;103345.13;;;-4.11;70.99
84890;BME280;75153;52.222;5.160;2024-01-11T02:47:29;103341.72;;;-4.12;70.99
84890;BME280;75153;52.222;5.160;2024-01-11T02:49:55;103349.47;;;-4.12;71.00
84890;BME280;75153;52.222;5.160;2024-01-11T02:52:22;103353.19;;;-4.16;71.47
84890;BME280;75153;52.222;5.160;2024-01-11T02:54:48;103353.78;;;-4.12;71.40
84890;BME280;75153;52.222;5.160;2024-01-11T02:57:14;103347.69;;;-4.11;70.98
84890;BME280;75153;52.222;5.160;2024-01-11T02:59:40;103348.66;;;-4.12;71.39
84890;BME280;75153;52.222;5.160;2024-01-11T03:02:05;103349.25;;;-4.09;70.90
84890;BME280;75153;52.222;5.160;2024-01-11T03:04:31;103346.88;;;-4.12;71.21
84890;BME280;75153;52.222;5.160;2024-01-11T03:06:56;103348.53;;;-4.11;71.16
84890;BME280;75153;52.222;5.160;2024-01-11T03:09:22;103356.75;;;-4.06;70.45
84890;BME280;75153;52.222;5.160;2024-01-11T03:11:47;103366.78;;;-4.14;71.23
84890;BME280;75153;52.222;5.160;2024-01-11T03:14:12;103357.78;;;-4.08;70.87
84890;BME280;75153;52.222;5.160;2024-01-11T03:16:38;103355.97;;;-4.19;71.76
84890;BME280;75153;52.222;5.160;2024-01-11T03:19:05;103360.28;;;-4.19;71.85
84890;BME280;75153;52.222;5.160;2024-01-11T03:21:31;103350.91;;;-4.20;72.34
84890;BME280;75153;52.222;5.160;2024-01-11T03:23:56;103361.63;;;-4.14;71.94
84890;BME280;75153;52.222;5.160;2024-01-11T03:26:22;103351.94;;;-4.23;72.67
84890;BME280;75153;52.222;5.160;2024-01-11T03:28:47;103351.94;;;-4.23;72.99
84890;BME280;75153;52.222;5.160;2024-01-11T03:31:12;103353.94;;;-4.26;73.01
84890;BME280;75153;52.222;5.160;2024-01-11T03:33:39;103354.97;;;-4.29;73.37
84890;BME280;75153;52.222;5.160;2024-01-11T03:36:11;103363.81;;;-4.20;72.69
84890;BME280;75153;52.222;5.160;2024-01-11T03:38:37;103361.44;;;-4.23;73.03
84890;BME280;75153;52.222;5.160;2024-01-11T03:41:08;103361.75;;;-4.28;73.72
84890;BME280;75153;52.222;5.160;2024-01-11T03:43:35;103358.66;;;-4.33;74.18
84890;BME280;75153;52.222;5.160;2024-01-11T03:46:01;103363.94;;;-4.35;74.45
84890;BME280;75153;52.222;5.160;2024-01-11T03:48:26;103351.66;;;-4.31;73.96
84890;BME280;75153;52.222;5.160;2024-01-11T03:50:51;103355.16;;;-4.32;74.47
84890;BME280;75153;52.222;5.160;2024-01-11T03:53:17;103354.22;;;-4.31;73.92
84890;BME280;75153;52.222;5.160;2024-01-11T03:55:42;103360.53;;;-4.35;74.35
84890;BME280;75153;52.222;5.160;2024-01-11T03:58:07;103362.81;;;-4.43;74.76
84890;BME280;75153;52.222;5.160;2024-01-11T04:00:33;103374.13;;;-4.46;74.88
84890;BME280;75153;52.222;5.160;2024-01-11T04:02:58;103361.34;;;-4.47;75.05
84890;BME280;75153;52.222;5.160;2024-01-11T04:05:24;103366.31;;;-4.44;75.00
84890;BME280;75153;52.222;5.160;2024-01-11T04:07:49;103373.09;;;-4.43;74.95
84890;BME280;75153;52.222;5.160;2024-01-11T04:10:17;103372.28;;;-4.44;74.74
84890;BME280;75153;52.222;5.160;2024-01-11T04:12:42;103383.41;;;-4.43;74.97
84890;BME280;75153;52.222;5.160;2024-01-11T04:15:08;103380.53;;;-4.52;75.33
84890;BME280;75153;52.222;5.160;2024-01-11T04:17:34;103385.88;;;-4.55;75.28
84890;BME280;75153;52.222;5.160;2024-01-11T04:19:59;103390.31;;;-4.57;75.40
84890;BME280;75153;52.222;5.160;2024-01-11T04:22:24;103396.47;;;-4.59;75.37
84890;BME280;75153;52.222;5.160;2024-01-11T04:24:50;103399.69;;;-4.56;75.53
84890;BME280;75153;52.222;5.160;2024-01-11T04:27:15;103391.44;;;-4.61;75.38
84890;BME280;75153;52.222;5.160;2024-01-11T04:29:41;103401.31;;;-4.55;75.33
84890;BME280;75153;52.222;5.160;2024-01-11T04:32:06;103398.22;;;-4.60;75.55
84890;BME280;75153;52.222;5.160;2024-01-11T04:34:32;103398.22;;;-4.60;75.56
84890;BME280;75153;52.222;5.160;2024-01-11T04:36:57;103403.28;;;-4.58;75.86
84890;BME280;75153;52.222;5.160;2024-01-11T04:39:22;103402.44;;;-4.59;75.71
84890;BME280;75153;52.222;5.160;2024-01-11T04:41:48;103400.81;;;-4.60;76.05
84890;BME280;75153;52.222;5.160;2024-01-11T04:44:13;103398.84;;;-4.56;75.84
84890;BME280;75153;52.222;5.160;2024-01-11T04:46:38;103413.69;;;-4.60;76.17
84890;BME280;75153;52.222;5.160;2024-01-11T04:49:04;103397.72;;;-4.65;76.18
84890;BME280;75153;52.222;5.160;2024-01-11T04:51:29;103397.50;;;-4.62;76.10
84890;BME280;75153;52.222;5.160;2024-01-11T04:53:54;103407.09;;;-4.64;76.20
84890;BME280;75153;52.222;5.160;2024-01-11T04:56:20;103408.00;;;-4.65;75.89
84890;BME280;75153;52.222;5.160;2024-01-11T04:58:45;103414.63;;;-4.61;76.06
84890;BME280;75153;52.222;5.160;2024-01-11T05:01:15;103409.97;;;-4.68;76.55
84890;BME280;75153;52.222;5.160;2024-01-11T05:03:41;103392.03;;;-4.70;76.22
84890;BME280;75153;52.222;5.160;2024-01-11T05:06:07;103395.34;;;-4.68;75.86
84890;BME280;75153;52.222;5.160;2024-01-11T05:08:32;103392.03;;;-4.70;76.04
84890;BME280;75153;52.222;5.160;2024-01-11T05:10:58;103388.75;;;-4.72;76.12
84890;BME280;75153;52.222;5.160;2024-01-11T05:13:24;103398.22;;;-4.72;76.03
84890;BME280;75153;52.222;5.160;2024-01-11T05:15:49;103403.47;;;-4.74;76.10
84890;BME280;75153;52.222;5.160;2024-01-11T05:18:14;103400.91;;;-4.74;76.03
84890;BME280;75153;52.222;5.160;2024-01-11T05:20:40;103400.97;;;-4.76;76.29
84890;BME280;75153;52.222;5.160;2024-01-11T05:23:05;103394.00;;;-4.74;76.27
84890;BME280;75153;52.222;5.160;2024-01-11T05:25:31;103390.69;;;-4.76;76.04
84890;BME280;75153;52.222;5.160;2024-01-11T05:28:01;103386.59;;;-4.78;76.28
84890;BME280;75153;52.222;5.160;2024-01-11T05:30:27;103374.22;;;-4.73;76.03
84890;BME280;75153;52.222;5.160;2024-01-11T05:32:53;103380.09;;;-4.71;76.06
84890;BME280;75153;52.222;5.160;2024-01-11T05:35:19;103365.81;;;-4.75;76.25
84890;BME280;75153;52.222;5.160;2024-01-11T05:37:44;103368.25;;;-4.74;76.17
84890;BME280;75153;52.222;5.160;2024-01-11T05:40:10;103368.88;;;-4.70;75.81
84890;BME280;75153;52.222;5.160;2024-01-11T05:42:35;103380.09;;;-4.71;76.00
84890;BME280;75153;52.222;5.160;2024-01-11T05:45:03;103388.97;;;-4.75;75.65
84890;BME280;75153;52.222;5.160;2024-01-11T05:47:29;103382.47;;;-4.81;76.02
84890;BME280;75153;52.222;5.160;2024-01-11T05:49:54;103363.72;;;-4.83;76.30
84890;BME280;75153;52.222;5.160;2024-01-11T05:52:19;103378.22;;;-4.82;76.36
84890;BME280;75153;52.222;5.160;2024-01-11T05:54:45;103397.38;;;-4.86;76.11
84890;BME280;75153;52.222;5.160;2024-01-11T05:57:10;103388.13;;;-4.88;75.95
84890;BME280;75153;52.222;5.160;2024-01-11T05:59:35;103405.19;;;-4.87;76.19
84890;BME280;75153;52.222;5.160;2024-01-11T06:02:01;103396.97;;;-4.92;75.89
84890;BME280;75153;52.222;5.160;2024-01-11T06:04:26;103399.63;;;-4.94;76.20
84890;BME280;75153;52.222;5.160;2024-01-11T06:06:52;103400.94;;;-5.01;76.59
84890;BME280;75153;52.222;5.160;2024-01-11T06:09:17;103414.25;;;-4.94;76.52
84890;BME280;75153;52.222;5.160;2024-01-11T06:11:43;103412.09;;;-5.01;76.80
84890;BME280;75153;52.222;5.160;2024-01-11T06:14:08;103424.22;;;-5.03;76.63
84890;BME280;75153;52.222;5.160;2024-01-11T06:16:34;103444.06;;;-5.05;76.46
84890;BME280;75153;52.222;5.160;2024-01-11T06:18:59;103454.53;;;-5.08;76.47
84890;BME280;75153;52.222;5.160;2024-01-11T06:21:24;103467.81;;;-5.14;76.63
84890;BME280;75153;52.222;5.160;2024-01-11T06:23:50;103470.19;;;-5.11;76.71
84890;BME280;75153;52.222;5.160;2024-01-11T06:26:15;103481.59;;;-5.15;77.05
84890;BME280;75153;52.222;5.160;2024-01-11T06:28:40;103481.47;;;-5.13;76.93
84890;BME280;75153;52.222;5.160;2024-01-11T06:31:06;103474.50;;;-5.11;77.10
84890;BME280;75153;52.222;5.160;2024-01-11T06:33:31;103477.31;;;-5.02;76.90
84890;BME280;75153;52.222;5.160;2024-01-11T06:35:58;103472.28;;;-5.03;77.05
84890;BME280;75153;52.222;5.160;2024-01-11T06:38:24;103489.47;;;-5.04;77.29
84890;BME280;75153;52.222;5.160;2024-01-11T06:40:49;103486.16;;;-5.06;77.38
84890;BME280;75153;52.222;5.160;2024-01-11T06:43:15;103493.47;;;-5.00;77.19
84890;BME280;75153;52.222;5.160;2024-01-11T06:45:43;103489.88;;;-4.97;77.25
84890;BME280;75153;52.222;5.160;2024-01-11T06:48:08;103502.56;;;-4.94;76.92
84890;BME280;75153;52.222;5.160;2024-01-11T06:50:34;103499.50;;;-4.86;76.85
84890;BME280;75153;52.222;5.160;2024-01-11T06:53:00;103495.19;;;-4.86;76.73
84890;BME280;75153;52.222;5.160;2024-01-11T06:55:26;103497.75;;;-4.86;77.07
84890;BME280;75153;52.222;5.160;2024-01-11T06:57:51;103499.50;;;-4.86;77.43
84890;BME280;75153;52.222;5.160;2024-01-11T07:00:17;103498.09;;;-4.78;77.05
84890;BME280;75153;52.222;5.160;2024-01-11T07:02:42;103501.47;;;-4.77;77.10
84890;BME280;75153;52.222;5.160;2024-01-11T07:05:08;103496.41;;;-4.79;77.31
84890;BME280;75153;52.222;5.160;2024-01-11T07:07:33;103486.44;;;-4.70;76.85
84890;BME280;75153;52.222;5.160;2024-01-11T07:09:58;103486.44;;;-4.70;76.58
84890;BME280;75153;52.222;5.160;2024-01-11T07:12:24;103485.44;;;-4.68;76.49
84890;BME280;75153;52.222;5.160;2024-01-11T07:14:51;103480.50;;;-4.71;76.41
84890;BME280;75153;52.222;5.160;2024-01-11T07:17:16;103478.13;;;-4.74;76.82
84890;BME280;75153;52.222;5.160;2024-01-11T07:19:42;103464.63;;;-4.78;76.87
84890;BME280;75153;52.222;5.160;2024-01-11T07:22:07;103459.38;;;-4.76;76.80
84890;BME280;75153;52.222;5.160;2024-01-11T07:24:33;103457.53;;;-4.74;76.74
84890;BME280;75153;52.222;5.160;2024-01-11T07:27:06;103462.88;;;-4.77;77.13
84890;BME280;75153;52.222;5.160;2024-01-11T07:29:31;103468.22;;;-4.80;77.09
84890;BME280;75153;52.222;5.160;2024-01-11T07:31:58;103468.03;;;-4.77;77.02
84890;BME280;75153;52.222;5.160;2024-01-11T07:34:23;103465.84;;;-4.83;77.32
84890;BME280;75153;52.222;5.160;2024-01-11T07:36:49;103460.78;;;-4.85;77.10
84890;BME280;75153;52.222;5.160;2024-01-11T07:39:15;103469.97;;;-4.81;76.58
84890;BME280;75153;52.222;5.160;2024-01-11T07:41:40;103471.81;;;-4.83;76.86
84890;BME280;75153;52.222;5.160;2024-01-11T07:44:07;103471.91;;;-4.84;76.86
84890;BME280;75153;52.222;5.160;2024-01-11T07:46:32;103472.63;;;-4.82;76.65
84890;BME280;75153;52.222;5.160;2024-01-11T07:48:58;103478.19;;;-4.88;76.65
84890;BME280;75153;52.222;5.160;2024-01-11T07:51:24;103479.63;;;-4.84;76.65
84890;BME280;75153;52.222;5.160;2024-01-11T07:53:49;103477.44;;;-4.90;76.97
84890;BME280;75153;52.222;5.160;2024-01-11T07:56:15;103474.88;;;-4.90;76.82
84890;BME280;75153;52.222;5.160;2024-01-11T07:58:40;103477.38;;;-4.89;76.91
84890;BME280;75153;52.222;5.160;2024-01-11T08:01:07;103479.13;;;-4.89;76.67
84890;BME280;75153;52.222;5.160;2024-01-11T08:03:33;103482.59;;;-4.90;76.81
84890;BME280;75153;52.222;5.160;2024-01-11T08:06:00;103478.72;;;-4.83;76.49
84890;BME280;75153;52.222;5.160;2024-01-11T08:08:26;103480.34;;;-4.82;76.51
84890;BME280;75153;52.222;5.160;2024-01-11T08:10:51;103470.53;;;-4.90;76.87
84890;BME280;75153;52.222;5.160;2024-01-11T08:13:17;103460.38;;;-4.91;76.99
84890;BME280;75153;52.222;5.160;2024-01-11T08:15:43;103466.13;;;-4.88;76.87
84890;BME280;75153;52.222;5.160;2024-01-11T08:18:08;103469.97;;;-4.81;77.07
84890;BME280;75153;52.222;5.160;2024-01-11T08:20:34;103464.81;;;-4.81;77.38
84890;BME280;75153;52.222;5.160;2024-01-11T08:22:59;103470.69;;;-4.79;77.18
84890;BME280;75153;52.222;5.160;2024-01-11T08:25:25;103461.94;;;-4.76;76.91
84890;BME280;75153;52.222;5.160;2024-01-11T08:27:50;103468.03;;;-4.77;77.13
84890;BME280;75153;52.222;5.160;2024-01-11T08:30:16;103484.00;;;-4.72;76.94
84890;BME280;75153;52.222;5.160;2024-01-11T08:32:41;103493.16;;;-4.68;77.07
84890;BME280;75153;52.222;5.160;2024-01-11T08:35:09;103493.97;;;-4.67;76.83
84890;BME280;75153;52.222;5.160;2024-01-11T08:37:35;103494.63;;;-4.64;76.88
84890;BME280;75153;52.222;5.160;2024-01-11T08:40:01;103502.84;;;-4.59;76.77
84890;BME280;75153;52.222;5.160;2024-01-11T08:42:26;103502.34;;;-4.51;76.68
84890;BME280;75153;52.222;5.160;2024-01-11T08:44:52;103506.41;;;-4.47;76.75
84890;BME280;75153;52.222;5.160;2024-01-11T08:47:17;103523.91;;;-4.39;76.17
84890;BME280;75153;52.222;5.160;2024-01-11T08:49:43;103517.63;;;-4.35;76.32
84890;BME280;75153;52.222;5.160;2024-01-11T08:52:08;103517.22;;;-4.29;76.16
84890;BME280;75153;52.222;5.160;2024-01-11T08:54:34;103519.81;;;-4.16;75.35
84890;BME280;75153;52.222;5.160;2024-01-11T08:57:00;103534.69;;;-4.07;75.26
84890;BME280;75153;52.222;5.160;2024-01-11T08:59:25;103551.97;;;-3.96;74.79
84890;BME280;75153;52.222;5.160;2024-01-11T09:01:51;103550.75;;;-3.91;75.16
84890;BME280;75153;52.222;5.160;2024-01-11T09:04:17;103555.81;;;-3.76;74.46
84890;BME280;75153;52.222;5.160;2024-01-11T09:06:43;103554.25;;;-3.66;74.75
84890;BME280;75153;52.222;5.160;2024-01-11T09:09:08;103551.16;;;-3.58;75.50
84890;BME280;75153;52.222;5.160;2024-01-11T09:11:36;103552.66;;;-3.43;75.13
84890;BME280;75153;52.222;5.160;2024-01-11T09:14:01;103550.38;;;-3.35;75.26
84890;BME280;75153;52.222;5.160;2024-01-11T09:16:28;103556.34;;;-3.22;75.41
84890;BME280;75153;52.222;5.160;2024-01-11T09:18:53;103545.28;;;-3.11;75.78
84890;BME280;75153;52.222;5.160;2024-01-11T09:21:19;103542.75;;;-3.00;75.94
84890;BME280;75153;52.222;5.160;2024-01-11T09:23:45;103546.53;;;-2.92;76.98
84890;BME280;75153;52.222;5.160;2024-01-11T09:26:10;103551.66;;;-2.80;76.85
84890;BME280;75153;52.222;5.160;2024-01-11T09:28:35;103547.47;;;-2.69;76.72
84890;BME280;75153;52.222;5.160;2024-01-11T09:31:01;103555.63;;;-2.63;77.56
84890;BME280;75153;52.222;5.160;2024-01-11T09:33:27;103555.66;;;-2.52;76.19
84890;BME280;75153;52.222;5.160;2024-01-11T09:35:54;103561.28;;;-2.46;77.71
84890;BME280;75153;52.222;5.160;2024-01-11T09:38:20;103566.63;;;-2.37;76.73
84890;BME280;75153;52.222;5.160;2024-01-11T09:40:46;103574.16;;;-2.34;78.74
84890;BME280;75153;52.222;5.160;2024-01-11T09:43:12;103566.06;;;-2.29;79.07
84890;BME280;75153;52.222;5.160;2024-01-11T09:45:38;103566.53;;;-2.24;79.69
84890;BME280;75153;52.222;5.160;2024-01-11T09:48:06;103563.38;;;-2.16;79.32
84890;BME280;75153;52.222;5.160;2024-01-11T09:50:32;103570.69;;;-2.10;79.39
84890;BME280;75153;52.222;5.160;2024-01-11T09:52:58;103565.91;;;-2.04;79.93
84890;BME280;75153;52.222;5.160;2024-01-11T09:55:23;103566.25;;;-1.97;79.59
84890;BME280;75153;52.222;5.160;2024-01-11T09:57:52;103561.56;;;-1.92;80.11
84890;BME280;75153;52.222;5.160;2024-01-11T10:00:24;103555.91;;;-1.86;79.42
84890;BME280;75153;52.222;5.160;2024-01-11T10:02:50;103562.25;;;-1.78;80.11
84890;BME280;75153;52.222;5.160;2024-01-11T10:05:18;103556.50;;;-1.71;79.59
84890;BME280;75153;52.222;5.160;2024-01-11T10:07:44;103573.31;;;-1.65;78.94
84890;BME280;75153;52.222;5.160;2024-01-11T10:10:10;103577.22;;;-1.60;79.36
84890;BME280;75153;52.222;5.160;2024-01-11T10:12:37;103573.47;;;-1.55;79.42
84890;BME280;75153;52.222;5.160;2024-01-11T10:15:09;103566.75;;;-1.47;78.31
84890;BME280;75153;52.222;5.160;2024-01-11T10:17:45;103586.75;;;-1.49;79.38
84890;BME280;75153;52.222;5.160;2024-01-11T10:20:14;103575.19;;;-1.45;79.48
84890;BME280;75153;52.222;5.160;2024-01-11T10:22:43;103572.97;;;-1.38;78.90
84890;BME280;75153;52.222;5.160;2024-01-11T10:25:13;103575.09;;;-1.32;79.00
84890;BME280;75153;52.222;5.160;2024-01-11T10:27:43;103563.53;;;-1.28;79.14
84890;BME280;75153;52.222;5.160;2024-01-11T10:30:13;103559.41;;;-1.19;77.91
84890;BME280;75153;52.222;5.160;2024-01-11T10:32:40;103565.31;;;-1.17;78.67
84890;BME280;75153;52.222;5.160;2024-01-11T10:35:06;103574.25;;;-1.10;78.07
84890;BME280;75153;52.222;5.160;2024-01-11T10:37:32;103575.63;;;-1.06;78.20
84890;BME280;75153;52.222;5.160;2024-01-11T10:40:03;103577.88;;;-1.01;78.35
84890;BME280;75153;52.222;5.160;2024-01-11T10:42:31;103575.97;;;-0.99;78.72
84890;BME280;75153;52.222;5.160;2024-01-11T10:44:59;103580.78;;;-0.95;78.87
84890;BME280;75153;52.222;5.160;2024-01-11T10:47:30;103588.22;;;-0.90;78.57
84890;BME280;75153;52.222;5.160;2024-01-11T10:49:56;103595.59;;;-0.85;78.16
84890;BME280;75153;52.222;5.160;2024-01-11T10:52:28;103591.69;;;-0.80;77.30
84890;BME280;75153;52.222;5.160;2024-01-11T10:54:59;103598.66;;;-0.80;78.37
84890;BME280;75153;52.222;5.160;2024-01-11T10:57:27;103607.84;;;-0.76;78.14
84890;BME280;75153;52.222;5.160;2024-01-11T10:59:54;103600.06;;;-0.76;78.87
84890;BME280;75153;52.222;5.160;2024-01-11T11:02:20;103600.03;;;-0.65;76.79
84890;BME280;75153;52.222;5.160;2024-01-11T11:04:47;103600.97;;;-0.66;77.59
84890;BME280;75153;52.222;5.160;2024-01-11T11:07:15;103605.91;;;-0.63;76.95
84890;BME280;75153;52.222;5.160;2024-01-11T11:09:41;103600.84;;;-0.64;78.36
84890;BME280;75153;52.222;5.160;2024-01-11T11:12:10;103598.94;;;-0.62;78.84
84890;BME280;75153;52.222;5.160;2024-01-11T11:14:36;103598.72;;;-0.59;78.05
84890;BME280;75153;52.222;5.160;2024-01-11T11:17:03;103596.69;;;-0.56;77.90
84890;BME280;75153;52.222;5.160;2024-01-11T11:19:29;103598.34;;;-0.55;79.39
84890;BME280;75153;52.222;5.160;2024-01-11T11:21:55;103596.09;;;-0.48;78.16
84890;BME280;75153;52.222;5.160;2024-01-11T11:24:21;103591.47;;;-0.44;77.66
84890;BME280;75153;52.222;5.160;2024-01-11T11:26:46;103591.78;;;-0.38;77.82
84890;BME280;75153;52.222;5.160;2024-01-11T11:29:12;103582.81;;;-0.34;78.60
84890;BME280;75153;52.222;5.160;2024-01-11T11:31:41;103578.75;;;-0.27;78.20
84890;BME280;75153;52.222;5.160;2024-01-11T11:34:10;103582.63;;;-0.21;78.77
84890;BME280;75153;52.222;5.160;2024-01-11T11:36:36;103571.06;;;-0.17;78.44
84890;BME280;75153;52.222;5.160;2024-01-11T11:39:02;103569.16;;;-0.15;79.38
84890;BME280;75153;52.222;5.160;2024-01-11T11:41:30;103566.31;;;-0.12;78.79
84890;BME280;75153;52.222;5.160;2024-01-11T11:44:00;103562.53;;;-0.08;79.11
84890;BME280;75153;52.222;5.160;2024-01-11T11:46:26;103560.75;;;-0.07;79.09
84890;BME280;75153;52.222;5.160;2024-01-11T11:48:52;103552.34;;;0.01;78.97
84890;BME280;75153;52.222;5.160;2024-01-11T11:51:20;103551.25;;;0.03;79.34
84890;BME280;75153;52.222;5.160;2024-01-11T11:53:47;103550.03;;;0.07;79.77
84890;BME280;75153;52.222;5.160;2024-01-11T11:56:14;103546.09;;;0.13;79.01
84890;BME280;75153;52.222;5.160;2024-01-11T11:58:43;103541.47;;;0.16;79.12
84890;BME280;75153;52.222;5.160;2024-01-11T12:01:09;103543.41;;;0.24;78.04
84890;BME280;75153;52.222;5.160;2024-01-11T12:03:36;103534.56;;;0.27;78.46
84890;BME280;75153;52.222;5.160;2024-01-11T12:06:06;103528.03;;;0.32;78.01
84890;BME280;75153;52.222;5.160;2024-01-11T12:08:32;103519.84;;;0.37;77.68
84890;BME280;75153;52.222;5.160;2024-01-11T12:10:58;103513.41;;;0.31;78.66
84890;BME280;75153;52.222;5.160;2024-01-11T12:13:24;103507.69;;;0.37;78.92
84890;BME280;75153;52.222;5.160;2024-01-11T12:15:50;103502.91;;;0.42;78.80
84890;BME280;75153;52.222;5.160;2024-01-11T12:18:16;103497.31;;;0.47;78.00
84890;BME280;75153;52.222;5.160;2024-01-11T12:20:41;103495.84;;;0.54;77.90
84890;BME280;75153;52.222;5.160;2024-01-11T12:23:06;103494.63;;;0.58;77.38
84890;BME280;75153;52.222;5.160;2024-01-11T12:25:32;103494.34;;;0.61;76.93
84890;BME280;75153;52.222;5.160;2024-01-11T12:27:58;103495.84;;;0.64;77.37
84890;BME280;75153;52.222;5.160;2024-01-11T12:30:26;103498.63;;;0.72;77.22
84890;BME280;75153;52.222;5.160;2024-01-11T12:32:55;103487.53;;;0.60;78.41
84890;BME280;75153;52.222;5.160;2024-01-11T12:35:22;103489.03;;;0.63;78.94
84890;BME280;75153;52.222;5.160;2024-01-11T12:37:54;103486.88;;;0.68;78.23
84890;BME280;75153;52.222;5.160;2024-01-11T12:40:20;103487.09;;;0.65;78.77
84890;BME280;75153;52.222;5.160;2024-01-11T12:42:46;103483.31;;;0.69;78.72
84890;BME280;75153;52.222;5.160;2024-01-11T12:45:12;103476.47;;;0.78;77.89